Time;durP1;ratioP1;P1;durP2;ratioP2;P2;SDS_P1;SDS_P2;PMS_P1;PMS_P2;Temp;Humidity;BMP_temperature;BMP_pressure;BME280_temperature;BME280_humidity;BME280_pressure;Samples;Min_cycle;Max_cycle;Signal;HPM_P1;HPM_P2
2022/03/14 00:00:44;;;;;;;23.58;9.30;;;;;;;20.42;13.92;99200.34;5086476;28;20818;-77
2022/03/14 00:03:12;;;;;;;22.75;10.55;;;;;;;20.07;14.36;99197.88;5086237;28;20040;-77
2022/03/14 00:05:38;;;;;;;24.10;9.45;;;;;;;20.13;14.41;99199.16;5086243;28;21969;-77
2022/03/14 00:08:06;;;;;;;25.52;11.05;;;;;;;20.37;14.35;99212.63;5090411;28;20039;-77
2022/03/14 00:10:34;;;;;;;28.75;9.55;;;;;;;20.82;13.83;99200.31;5087551;28;20553;-77
2022/03/14 00:13:01;;;;;;;29.23;12.32;;;;;;;20.75;13.78;99205.03;5089389;28;20044;-77
2022/03/14 00:15:32;;;;;;;25.00;10.43;;;;;;;20.85;13.99;99204.31;5085466;28;20038;-77
2022/03/14 00:18:00;;;;;;;27.20;11.50;;;;;;;20.42;14.26;99209.47;5085650;28;20109;-77
2022/03/14 00:20:26;;;;;;;31.73;12.77;;;;;;;20.50;14.33;99207.56;5087113;28;20136;-77
2022/03/14 00:22:52;;;;;;;33.22;14.32;;;;;;;20.28;14.58;99214.91;5088760;28;20396;-77
2022/03/14 00:25:19;;;;;;;30.38;12.18;;;;;;;20.29;14.39;99205.38;5086260;28;20097;-77
2022/03/14 00:27:45;;;;;;;28.55;10.70;;;;;;;20.48;14.04;99209.94;5091414;28;20028;-77
2022/03/14 00:30:12;;;;;;;27.55;9.85;;;;;;;20.60;13.86;99207.69;5082908;28;20031;-76
2022/03/14 00:32:39;;;;;;;26.95;10.57;;;;;;;20.45;13.80;99202.34;5063848;28;20020;-77
2022/03/14 00:35:07;;;;;;;23.23;9.77;;;;;;;20.95;13.56;99210.00;5091214;28;20044;-77
2022/03/14 00:37:35;;;;;;;26.55;10.57;;;;;;;21.11;13.48;99216.16;5087268;28;20024;-77
2022/03/14 00:40:03;;;;;;;27.25;10.68;;;;;;;21.60;12.99;99218.50;5088495;28;20474;-76
2022/03/14 00:42:29;;;;;;;24.77;10.43;;;;;;;21.76;12.98;99213.41;5085761;28;20482;-77
2022/03/14 00:44:55;;;;;;;27.13;10.73;;;;;;;21.25;13.21;99218.25;5089219;28;20036;-77
2022/03/14 00:47:21;;;;;;;21.33;10.13;;;;;;;21.32;13.29;99213.53;5083011;28;20023;-76
2022/03/14 00:49:48;;;;;;;28.08;12.38;;;;;;;20.64;13.90;99218.88;5087288;28;20036;-76
2022/03/14 00:52:17;;;;;;;25.25;11.05;;;;;;;20.91;13.63;99208.38;5091581;28;20028;-76
2022/03/14 00:54:45;;;;;;;31.35;11.70;;;;;;;20.86;13.77;99208.72;5089203;28;20148;-77
2022/03/14 00:57:11;;;;;;;28.10;10.52;;;;;;;21.10;13.47;99214.53;5084150;28;20119;-77
2022/03/14 00:59:39;;;;;;;28.25;9.80;;;;;;;20.90;13.48;99209.56;5072269;28;20027;-76
2022/03/14 01:02:07;;;;;;;29.08;11.10;;;;;;;20.87;13.60;99213.91;5085938;28;20027;-77
2022/03/14 01:04:33;;;;;;;21.80;9.07;;;;;;;21.16;13.28;99215.00;5083425;28;20075;-76
2022/03/14 01:06:59;;;;;;;23.38;9.90;;;;;;;21.70;12.83;99214.19;5087515;28;20561;-76
2022/03/14 01:09:25;;;;;;;23.85;10.30;;;;;;;22.09;12.41;99209.59;5085991;28;20089;-77
2022/03/14 01:11:51;;;;;;;28.38;10.93;;;;;;;22.06;12.29;99215.16;5089331;28;20106;-76
2022/03/14 01:14:17;;;;;;;23.85;10.07;;;;;;;22.25;12.15;99215.66;5086771;28;20066;-77
2022/03/14 01:16:44;;;;;;;28.73;11.10;;;;;;;22.31;12.21;99216.84;5087461;28;20468;-77
2022/03/14 01:19:11;;;;;;;24.42;9.75;;;;;;;22.16;12.18;99225.59;5084061;28;20020;-77
2022/03/14 01:21:41;;;;;;;25.20;9.25;;;;;;;22.10;12.11;99221.59;5090443;28;20470;-77
2022/03/14 01:24:08;;;;;;;25.73;10.27;;;;;;;22.24;11.92;99224.44;5082765;28;20032;-77
2022/03/14 01:26:34;;;;;;;28.05;10.27;;;;;;;22.34;11.91;99220.88;5080203;28;20048;-77
2022/03/14 01:29:02;;;;;;;23.67;9.70;;;;;;;22.33;11.84;99224.88;5085543;28;20032;-77
2022/03/14 01:31:28;;;;;;;22.83;9.57;;;;;;;22.20;12.01;99218.81;5081344;28;20418;-77
2022/03/14 01:33:55;;;;;;;24.20;9.15;;;;;;;22.09;12.18;99226.38;5084905;28;20050;-77
2022/03/14 01:36:21;;;;;;;24.35;10.95;;;;;;;22.27;11.98;99223.63;5080300;28;20089;-77
2022/03/14 01:38:47;;;;;;;29.58;11.43;;;;;;;22.22;12.15;99230.41;5084984;28;20032;-77
2022/03/14 01:41:22;;;;;;;24.98;10.02;;;;;;;22.15;11.90;99238.00;5084932;28;20024;-77
2022/03/14 01:43:49;;;;;;;26.48;10.85;;;;;;;22.22;11.96;99233.22;5084411;28;20036;-77
2022/03/14 01:46:16;;;;;;;27.40;9.77;;;;;;;21.82;12.17;99245.38;5080449;28;20423;-77
2022/03/14 01:48:44;;;;;;;25.02;10.10;;;;;;;21.36;12.82;99233.09;5087415;28;20476;-76
2022/03/14 01:51:11;;;;;;;25.55;9.65;;;;;;;21.47;12.74;99242.34;5080322;28;20017;-76
2022/03/14 01:53:37;;;;;;;24.35;8.73;;;;;;;21.52;12.40;99249.59;5084681;28;20048;-77
2022/03/14 01:56:04;;;;;;;22.70;9.77;;;;;;;21.77;12.22;99250.56;5089196;28;20013;-77
2022/03/14 01:58:31;;;;;;;21.27;9.32;;;;;;;21.56;12.46;99254.03;5081637;28;20042;-76
2022/03/14 02:00:57;;;;;;;25.83;10.00;;;;;;;21.16;12.57;99252.13;5084026;28;20059;-76
2022/03/14 02:03:23;;;;;;;26.30;10.95;;;;;;;21.43;12.24;99254.69;5083378;28;20115;-77
2022/03/14 02:05:50;;;;;;;28.77;10.57;;;;;;;21.56;12.25;99258.81;5084737;28;20035;-77
2022/03/14 02:08:17;;;;;;;25.60;10.02;;;;;;;21.69;11.96;99255.28;5089744;28;20028;-77
2022/03/14 02:10:43;;;;;;;23.48;9.85;;;;;;;21.61;12.24;99262.00;5093700;28;20024;-77
2022/03/14 02:13:11;;;;;;;24.40;10.25;;;;;;;21.17;12.46;99255.69;5092360;28;20099;-77
2022/03/14 02:15:39;;;;;;;24.98;9.00;;;;;;;20.80;12.91;99264.09;5093749;28;20054;-77
2022/03/14 02:18:06;;;;;;;30.90;11.25;;;;;;;21.05;12.74;99264.38;5089787;28;20057;-77
2022/03/14 02:20:33;;;;;;;23.70;9.48;;;;;;;21.12;12.62;99261.66;5087747;28;20468;-77
2022/03/14 02:22:59;;;;;;;23.00;9.95;;;;;;;21.29;12.48;99261.78;5093749;28;20447;-77
2022/03/14 02:25:25;;;;;;;24.25;9.38;;;;;;;21.40;12.22;99263.88;5089488;28;20433;-77
2022/03/14 02:27:51;;;;;;;29.35;9.93;;;;;;;21.47;12.17;99263.94;5089659;28;20040;-77
2022/03/14 02:30:18;;;;;;;24.25;10.07;;;;;;;21.52;11.90;99267.13;5090954;28;20040;-77
2022/03/14 02:32:45;;;;;;;26.70;9.85;;;;;;;21.65;11.86;99267.63;5090086;28;20028;-77
2022/03/14 02:35:12;;;;;;;26.63;10.55;;;;;;;21.74;12.07;99263.31;5092543;28;20167;-77
2022/03/14 02:37:39;;;;;;;30.17;10.70;;;;;;;21.46;12.31;99265.91;5090479;28;20028;-77
2022/03/14 02:40:06;;;;;;;23.67;9.38;;;;;;;21.45;12.22;99274.69;5089168;28;20036;-77
2022/03/14 02:42:33;;;;;;;26.75;10.75;;;;;;;21.63;12.01;99268.03;5092963;28;20377;-77
2022/03/14 02:45:02;;;;;;;26.23;10.07;;;;;;;21.54;12.51;99264.75;5088876;28;20023;-77
2022/03/14 02:47:28;;;;;;;26.70;11.40;;;;;;;20.92;12.54;99271.38;5090201;28;20035;-77
2022/03/14 02:49:55;;;;;;;28.20;11.23;;;;;;;20.99;12.88;99271.47;5097212;28;20023;-77
2022/03/14 02:52:21;;;;;;;35.42;12.52;;;;;;;21.24;12.75;99276.09;5091411;28;20036;-77
2022/03/14 02:54:47;;;;;;;33.38;11.95;;;;;;;21.32;12.17;99280.56;5092504;28;20024;-77
2022/03/14 02:57:13;;;;;;;33.38;12.63;;;;;;;21.42;12.12;99276.28;5092481;28;20065;-77
2022/03/14 02:59:39;;;;;;;30.65;12.07;;;;;;;21.23;12.63;99280.09;5091606;28;20153;-77
2022/03/14 03:02:05;;;;;;;31.65;13.05;;;;;;;20.77;13.04;99275.25;5089534;28;20040;-77
2022/03/14 03:04:32;;;;;;;36.47;13.02;;;;;;;20.60;13.45;99276.66;5093739;28;20093;-77
2022/03/14 03:06:58;;;;;;;32.97;12.80;;;;;;;20.35;13.59;99281.13;5092026;28;20030;-78
2022/03/14 03:09:30;;;;;;;30.27;12.25;;;;;;;20.28;13.42;99276.25;5091500;28;20070;-77
2022/03/14 03:11:56;;;;;;;29.77;11.60;;;;;;;20.24;13.37;99272.63;5094254;28;20020;-77
2022/03/14 03:14:22;;;;;;;31.48;11.88;;;;;;;20.57;13.03;99278.22;5091601;28;20466;-77
2022/03/14 03:16:49;;;;;;;32.67;13.60;;;;;;;20.77;12.90;99284.38;5094588;28;20036;-77
2022/03/14 03:19:15;;;;;;;25.70;11.55;;;;;;;20.82;12.95;99289.63;5087500;28;20016;-77
2022/03/14 03:21:41;;;;;;;31.42;13.15;;;;;;;21.03;12.73;99283.44;5090045;28;20034;-77
2022/03/14 03:24:08;;;;;;;32.10;11.93;;;;;;;21.14;12.65;99290.78;5090083;28;20436;-77
2022/03/14 03:26:39;;;;;;;27.80;11.10;;;;;;;20.90;12.90;99291.31;5063462;28;20036;-76
2022/03/14 03:29:11;;;;;;;27.75;11.30;;;;;;;20.81;12.79;99292.81;5076000;28;20042;-76
2022/03/14 03:31:37;;;;;;;26.77;10.25;;;;;;;21.19;12.50;99293.22;5073900;28;20502;-77
2022/03/14 03:34:03;;;;;;;24.75;10.98;;;;;;;21.38;12.36;99299.78;5071500;28;20050;-77
2022/03/14 03:36:30;;;;;;;27.85;10.98;;;;;;;21.50;12.18;99299.44;5056104;28;20048;-76
2022/03/14 03:38:58;;;;;;;28.65;11.75;;;;;;;21.53;12.02;99301.50;5087116;28;20081;-77
2022/03/14 03:41:24;;;;;;;35.75;14.75;;;;;;;21.71;12.25;99306.00;5084138;28;20039;-76
2022/03/14 03:43:51;;;;;;;33.42;12.40;;;;;;;21.56;11.90;99309.91;5089526;28;20493;-77
2022/03/14 03:46:17;;;;;;;32.83;11.45;;;;;;;21.33;12.00;99310.09;5084027;28;20025;-77
2022/03/14 03:48:43;;;;;;;30.38;11.90;;;;;;;20.80;12.32;99317.13;5088352;28;20027;-77
2022/03/14 03:51:09;;;;;;;38.85;13.18;;;;;;;20.74;12.51;99315.88;5088170;28;20101;-77
2022/03/14 03:53:35;;;;;;;29.42;11.85;;;;;;;20.58;12.51;99316.06;5083920;28;20050;-77
2022/03/14 03:56:01;;;;;;;29.15;12.73;;;;;;;20.77;12.36;99319.91;5085153;28;20042;-77
2022/03/14 03:58:28;;;;;;;30.85;12.93;;;;;;;20.94;12.28;99319.25;5085424;28;20024;-76
2022/03/14 04:00:54;;;;;;;32.60;11.95;;;;;;;20.67;12.69;99321.38;5086730;28;20028;-77
2022/03/14 04:03:20;;;;;;;30.15;12.82;;;;;;;20.79;12.42;99323.09;5087582;28;20507;-76
2022/03/14 04:05:47;;;;;;;26.23;12.07;;;;;;;20.99;12.06;99325.31;5085103;28;20040;-76
2022/03/14 04:08:13;;;;;;;30.10;12.80;;;;;;;21.14;12.17;99318.69;5083925;28;20031;-77
2022/03/14 04:10:41;;;;;;;34.97;14.27;;;;;;;21.20;11.88;99316.38;5072571;28;20032;-76
2022/03/14 04:13:09;;;;;;;37.28;13.70;;;;;;;21.21;11.75;99329.16;5085532;28;20028;-77
2022/03/14 04:15:46;;;;;;;40.80;15.32;;;;;;;21.10;11.96;99329.03;5087562;28;20115;-77
2022/03/14 04:18:13;;;;;;;33.30;14.45;;;;;;;21.03;11.93;99326.16;5087083;28;20039;-77
2022/03/14 04:20:41;;;;;;;34.08;13.20;;;;;;;21.01;12.03;99328.53;5087452;28;20032;-76
2022/03/14 04:23:07;;;;;;;36.20;13.90;;;;;;;20.50;12.66;99331.13;5094768;28;20027;-77
2022/03/14 04:25:34;;;;;;;31.98;13.05;;;;;;;20.27;12.84;99335.22;5067995;28;20410;-77
2022/03/14 04:28:00;;;;;;;30.02;11.35;;;;;;;20.41;12.49;99330.63;5083334;28;20412;-76
2022/03/14 04:30:26;;;;;;;32.55;11.73;;;;;;;19.90;12.95;99344.22;5086878;28;20044;-76
2022/03/14 04:32:52;;;;;;;30.80;12.32;;;;;;;20.16;12.75;99343.41;5087311;28;20067;-77
2022/03/14 04:35:18;;;;;;;25.05;9.70;;;;;;;20.19;12.69;99334.28;5082499;28;20085;-76
2022/03/14 04:37:44;;;;;;;30.65;12.68;;;;;;;20.20;12.81;99343.44;5068825;28;20035;-77
2022/03/14 04:40:12;;;;;;;34.92;12.88;;;;;;;20.05;13.01;99342.44;5080948;28;20486;-76
2022/03/14 04:42:39;;;;;;;30.70;12.77;;;;;;;20.15;12.93;99350.16;5085493;28;20032;-76
2022/03/14 04:45:05;;;;;;;31.60;12.20;;;;;;;20.24;13.12;99347.13;5085215;28;20036;-77
2022/03/14 04:47:31;;;;;;;32.33;13.32;;;;;;;20.48;12.96;99349.44;5084882;28;20043;-76
2022/03/14 04:49:58;;;;;;;29.25;12.10;;;;;;;19.95;13.04;99352.25;5091943;28;20463;-76
2022/03/14 04:52:24;;;;;;;25.55;12.32;;;;;;;20.11;12.85;99348.50;5081482;28;20025;-76
2022/03/14 04:54:50;;;;;;;33.83;13.30;;;;;;;20.45;12.73;99358.56;5083102;28;20051;-76
2022/03/14 04:57:16;;;;;;;30.20;12.13;;;;;;;20.79;12.31;99351.00;5086843;28;20024;-76
2022/03/14 04:59:42;;;;;;;29.38;12.65;;;;;;;20.71;12.34;99354.91;5083500;28;20043;-77
2022/03/14 05:02:09;;;;;;;29.83;11.65;;;;;;;20.80;12.23;99356.19;5083205;28;20044;-76
2022/03/14 05:04:36;;;;;;;28.83;11.77;;;;;;;20.71;12.33;99364.06;5086679;28;20040;-77
2022/03/14 05:07:02;;;;;;;27.52;11.98;;;;;;;20.81;12.14;99360.63;5083790;28;20024;-77
2022/03/14 05:09:28;;;;;;;24.58;11.40;;;;;;;20.99;12.20;99371.97;5090361;28;20062;-76
2022/03/14 05:11:54;;;;;;;29.98;11.70;;;;;;;21.07;11.90;99376.50;5086096;28;20032;-76
2022/03/14 05:14:21;;;;;;;26.80;12.07;;;;;;;20.97;11.96;99374.34;5081582;28;20028;-75
2022/03/14 05:16:47;;;;;;;29.10;11.18;;;;;;;20.27;12.56;99374.25;5081181;28;20040;-77
2022/03/14 05:19:14;;;;;;;34.33;12.00;;;;;;;19.96;12.77;99380.94;5083007;28;20021;-76
2022/03/14 05:21:40;;;;;;;26.88;10.75;;;;;;;19.54;13.04;99374.66;5083814;28;20046;-76
2022/03/14 05:24:08;;;;;;;35.22;13.02;;;;;;;19.31;13.18;99371.88;5085225;28;20036;-76
2022/03/14 05:26:34;;;;;;;47.20;21.00;;;;;;;19.21;13.35;99370.50;5085997;28;20052;-77
2022/03/14 05:29:00;;;;;;;68.15;23.75;;;;;;;19.67;13.19;99373.31;5080481;28;20029;-76
2022/03/14 05:31:27;;;;;;;64.43;24.50;;;;;;;20.27;12.71;99371.47;5088968;28;20032;-76
2022/03/14 05:33:53;;;;;;;81.70;30.73;;;;;;;20.42;12.68;99374.06;5085875;28;20024;-76
2022/03/14 05:36:20;;;;;;;56.28;23.17;;;;;;;20.35;12.87;99376.75;5085670;28;20044;-76
2022/03/14 05:38:46;;;;;;;74.90;27.50;;;;;;;20.46;12.99;99374.94;5087448;28;20363;-76
2022/03/14 05:41:12;;;;;;;57.45;21.33;;;;;;;20.21;13.06;99372.94;5084961;28;20059;-77
2022/03/14 05:43:38;;;;;;;48.08;18.63;;;;;;;20.32;13.18;99376.72;5087203;28;20075;-76
2022/03/14 05:46:06;;;;;;;41.03;16.33;;;;;;;20.60;13.08;99379.88;5082264;28;20025;-76
2022/03/14 05:48:35;;;;;;;39.30;15.40;;;;;;;20.78;12.84;99380.91;5079110;28;20033;-76
2022/03/14 05:51:02;;;;;;;34.00;14.20;;;;;;;21.43;12.65;99380.44;5081498;28;20096;-76
2022/03/14 05:53:29;;;;;;;27.05;10.75;;;;;;;21.38;12.50;99381.59;5086506;28;20071;-76
2022/03/14 05:55:56;;;;;;;32.70;13.73;;;;;;;21.73;12.18;99379.09;5084066;28;20469;-76
2022/03/14 05:58:22;;;;;;;49.25;20.30;;;;;;;21.83;12.99;99383.19;5080776;28;20036;-76
2022/03/14 06:00:48;;;;;;;52.80;18.48;;;;;;;21.78;12.99;99380.75;5080669;28;20095;-76
2022/03/14 06:03:15;;;;;;;43.83;17.55;;;;;;;22.02;12.66;99369.78;5085361;28;20481;-75
2022/03/14 06:05:41;;;;;;;46.95;19.23;;;;;;;22.43;12.58;99378.00;5082784;28;20036;-75
2022/03/14 06:08:08;;;;;;;38.15;15.95;;;;;;;22.55;12.81;99374.88;5084405;28;20032;-75
2022/03/14 06:10:34;;;;;;;48.97;18.35;;;;;;;22.19;13.26;99378.69;5067727;28;20501;-75
2022/03/14 06:13:00;;;;;;;40.80;17.05;;;;;;;22.26;12.96;99385.13;5081244;28;20434;-74
2022/03/14 06:15:26;;;;;;;40.35;16.80;;;;;;;22.42;13.29;99373.63;5065450;28;20480;-75
2022/03/14 06:17:52;;;;;;;37.60;16.90;;;;;;;21.88;13.90;99372.47;5088281;28;20111;-75
2022/03/14 06:20:18;;;;;;;46.08;17.48;;;;;;;21.85;13.93;99383.63;5084904;28;20027;-76
2022/03/14 06:22:49;;;;;;;36.88;16.63;;;;;;;22.29;13.56;99381.53;5082782;28;20032;-75
2022/03/14 06:25:17;;;;;;;;;;;;;;;22.33;13.88;99385.19;5083958;28;20473;-75
2022/03/14 06:27:43;;;;;;;36.75;16.05;;;;;;;22.77;13.17;99387.00;5085169;28;20019;-75
2022/03/14 06:30:11;;;;;;;40.20;16.10;;;;;;;22.32;13.73;99385.53;5085911;28;20384;-76
2022/03/14 06:32:38;;;;;;;30.40;14.27;;;;;;;22.23;13.88;99393.50;5082021;28;20040;-76
2022/03/14 06:35:07;;;;;;;35.17;15.50;;;;;;;22.32;13.54;99391.94;5066573;28;20413;-76
2022/03/14 06:37:34;;;;;;;31.70;14.68;;;;;;;22.88;13.02;99393.44;5089871;28;20102;-76
2022/03/14 06:40:00;;;;;;;30.48;14.23;;;;;;;22.80;13.63;99389.81;5082773;28;20035;-76
2022/03/14 06:42:27;;;;;;;32.05;13.63;;;;;;;22.51;13.89;99396.44;5087787;28;20032;-75
2022/03/14 06:44:53;;;;;;;32.03;14.93;;;;;;;22.31;14.08;99403.53;5083814;28;20497;-75
2022/03/14 06:47:21;;;;;;;28.73;14.00;;;;;;;22.54;13.79;99401.28;5084253;28;20050;-74
2022/03/14 06:49:47;;;;;;;33.08;14.75;;;;;;;22.45;14.30;99398.81;5081756;28;20107;-75
2022/03/14 06:52:14;;;;;;;32.38;13.90;;;;;;;22.70;13.83;99398.97;5087270;28;20507;-75
2022/03/14 06:54:41;;;;;;;29.63;13.52;;;;;;;23.00;13.81;99407.91;5086425;28;20028;-75
2022/03/14 06:57:08;;;;;;;31.65;12.80;;;;;;;23.34;13.00;99405.59;5085838;28;20096;-75
2022/03/14 06:59:35;;;;;;;27.48;12.38;;;;;;;22.95;13.42;99399.06;5087201;28;20104;-74
2022/03/14 07:02:02;;;;;;;26.60;12.15;;;;;;;22.45;13.58;99400.84;5084373;28;20474;-76
2022/03/14 07:04:29;;;;;;;24.52;10.95;;;;;;;23.08;12.84;99409.53;5087528;28;20040;-76
2022/03/14 07:06:55;;;;;;;26.30;10.95;;;;;;;23.70;12.65;99403.66;5087703;28;20040;-76
2022/03/14 07:09:22;;;;;;;23.20;10.52;;;;;;;24.27;12.26;99410.09;5087066;28;20439;-75
2022/03/14 07:11:54;;;;;;;29.73;12.45;;;;;;;24.24;12.19;99408.09;5087644;28;20115;-76
2022/03/14 07:14:21;;;;;;;22.15;11.10;;;;;;;22.85;12.88;99413.84;5089041;28;20447;-77
2022/03/14 07:16:47;;;;;;;25.05;10.32;;;;;;;23.29;13.11;99415.19;5087072;28;20033;-77
2022/03/14 07:19:14;;;;;;;23.73;11.50;;;;;;;23.00;12.60;99421.09;5089003;28;20035;-77
2022/03/14 07:21:40;;;;;;;27.45;13.05;;;;;;;21.78;13.46;99417.88;5085402;28;22315;-77
2022/03/14 07:24:07;;;;;;;21.38;9.63;;;;;;;22.72;12.59;99419.00;5086503;28;20051;-76
2022/03/14 07:26:33;;;;;;;18.73;9.25;;;;;;;23.68;12.62;99420.91;5088059;28;20122;-77
2022/03/14 07:29:01;;;;;;;19.88;8.60;;;;;;;24.17;11.86;99420.13;5081783;28;20067;-77
2022/03/14 07:31:27;;;;;;;22.58;9.45;;;;;;;23.57;11.99;99414.47;5086324;28;20105;-77
2022/03/14 07:33:53;;;;;;;24.50;11.60;;;;;;;22.03;12.75;99415.34;5085484;28;20035;-77
2022/03/14 07:36:19;;;;;;;18.02;8.35;;;;;;;23.45;12.08;99419.66;5093374;28;20044;-77
2022/03/14 07:38:46;;;;;;;18.38;7.90;;;;;;;24.11;11.79;99424.53;5090820;28;20070;-77
2022/03/14 07:41:12;;;;;;;20.08;8.30;;;;;;;23.93;11.50;99416.09;5083861;28;20363;-77
2022/03/14 07:43:40;;;;;;;16.17;7.18;;;;;;;24.70;11.44;99423.63;5087267;28;20044;-77
2022/03/14 07:46:07;;;;;;;15.93;7.43;;;;;;;25.14;10.92;99417.44;5083850;28;20028;-77
2022/03/14 07:48:34;;;;;;;16.20;7.40;;;;;;;25.60;10.22;99416.41;5088994;28;20055;-77
2022/03/14 07:51:00;;;;;;;16.92;8.88;;;;;;;24.74;10.72;99426.41;5086587;28;20028;-77
2022/03/14 07:53:26;;;;;;;17.95;6.80;;;;;;;25.39;10.82;99429.34;5086146;28;20040;-77
2022/03/14 07:55:53;;;;;;;15.85;7.60;;;;;;;25.84;10.39;99429.47;5086472;28;20029;-77
2022/03/14 07:58:19;;;;;;;17.10;7.63;;;;;;;25.96;9.85;99429.78;5089778;28;20056;-77
2022/03/14 08:00:45;;;;;;;17.35;8.13;;;;;;;25.10;10.41;99436.34;5082883;28;20056;-77
2022/03/14 08:03:12;;;;;;;15.65;6.50;;;;;;;24.47;10.75;99437.31;5086173;28;20063;-77
2022/03/14 08:05:38;;;;;;;18.33;7.95;;;;;;;24.96;10.31;99439.22;5086446;28;20066;-77
2022/03/14 08:08:04;;;;;;;20.02;8.77;;;;;;;25.03;10.81;99438.38;5083397;28;20044;-77
2022/03/14 08:10:30;;;;;;;16.92;7.90;;;;;;;25.06;10.71;99434.75;5068046;28;20029;-77
2022/03/14 08:12:57;;;;;;;13.85;6.63;;;;;;;25.41;10.33;99438.16;5086572;28;20020;-77
2022/03/14 08:15:26;;;;;;;13.35;5.65;;;;;;;25.68;10.50;99432.00;5068819;28;20432;-77
2022/03/14 08:17:54;;;;;;;36.00;13.18;;;;;;;26.75;9.79;99430.69;5084630;28;20504;-77
2022/03/14 08:20:22;;;;;;;17.63;6.88;;;;;;;26.51;9.39;99431.72;5085945;28;20505;-77
2022/03/14 08:22:50;;;;;;;10.13;4.97;;;;;;;26.98;9.29;99427.97;5086283;28;20032;-77
2022/03/14 08:25:16;;;;;;;16.80;6.78;;;;;;;27.59;8.97;99442.09;5087537;28;20036;-77
2022/03/14 08:27:42;;;;;;;11.55;5.50;;;;;;;27.57;8.99;99430.44;5085871;28;20037;-77
2022/03/14 08:30:09;;;;;;;10.15;5.05;;;;;;;27.63;8.61;99435.19;5068088;28;20494;-78
2022/03/14 08:32:37;;;;;;;14.52;5.50;;;;;;;27.47;9.06;99437.03;5081004;28;20120;-77
2022/03/14 08:35:07;;;;;;;11.18;5.72;;;;;;;27.00;8.50;99433.22;5085535;28;20047;-77
2022/03/14 08:37:42;;;;;;;25.27;7.78;;;;;;;26.80;9.28;99429.41;5082050;28;20051;-78
2022/03/14 08:40:10;;;;;;;9.38;4.30;;;;;;;27.62;8.68;99427.13;5084897;28;20028;-78
2022/03/14 08:42:38;;;;;;;11.90;5.63;;;;;;;25.52;9.59;99426.09;5081653;28;20526;-78
2022/03/14 08:45:05;;;;;;;12.50;5.38;;;;;;;25.62;9.72;99430.84;5091511;28;20032;-78
2022/03/14 08:47:32;;;;;;;9.93;4.68;;;;;;;26.97;9.41;99420.75;5086837;28;20042;-78
2022/03/14 08:49:59;;;;;;;8.35;4.78;;;;;;;27.44;8.41;99424.59;5083271;28;20111;-78
2022/03/14 08:52:25;;;;;;;8.75;3.72;;;;;;;27.94;8.31;99413.31;5081823;28;20062;-78
2022/03/14 08:54:51;;;;;;;7.55;3.92;;;;;;;27.20;8.37;99418.03;5083769;28;20119;-78
2022/03/14 08:57:17;;;;;;;9.38;4.13;;;;;;;26.90;8.72;99425.69;5088746;28;20035;-78
2022/03/14 08:59:44;;;;;;;8.07;3.67;;;;;;;26.29;9.34;99428.31;5089279;28;20028;-78
2022/03/14 09:02:10;;;;;;;6.13;3.42;;;;;;;25.31;10.08;99438.25;5083291;28;20367;-78
2022/03/14 09:04:37;;;;;;;7.32;3.25;;;;;;;26.89;8.96;99419.22;5083221;28;20093;-78
2022/03/14 09:07:03;;;;;;;6.82;4.20;;;;;;;25.60;9.29;99422.03;5081466;28;20028;-78
2022/03/14 09:09:29;;;;;;;6.30;3.60;;;;;;;26.84;8.65;99427.38;5062351;28;20112;-78
2022/03/14 09:11:56;;;;;;;8.82;4.07;;;;;;;27.10;8.67;99418.16;5080504;28;20100;-78
2022/03/14 09:14:22;;;;;;;7.00;3.10;;;;;;;26.68;9.29;99425.91;5086869;28;20125;-78
2022/03/14 09:16:48;;;;;;;5.57;3.25;;;;;;;27.07;8.81;99425.44;5082138;28;20028;-78
2022/03/14 09:19:15;;;;;;;8.65;3.70;;;;;;;26.74;9.31;99427.06;5084162;28;20040;-80
2022/03/14 09:21:41;;;;;;;8.55;4.53;;;;;;;25.34;9.61;99432.59;5094659;28;20036;-80
2022/03/14 09:24:07;;;;;;;3.83;2.53;;;;;;;27.54;8.76;99426.44;5071225;28;20063;-78
2022/03/14 09:26:35;;;;;;;7.05;3.25;;;;;;;28.53;7.65;99431.25;5082700;28;20064;-78
2022/03/14 09:29:02;;;;;;;6.57;3.20;;;;;;;28.52;8.38;99435.31;5084052;28;20044;-78
2022/03/14 09:31:29;;;;;;;7.43;4.07;;;;;;;27.00;8.27;99430.41;5082537;28;20081;-78
2022/03/14 09:33:55;;;;;;;4.88;2.92;;;;;;;26.16;9.48;99432.06;5085197;28;20464;-78
2022/03/14 09:36:21;;;;;;;5.85;2.72;;;;;;;26.87;8.13;99434.97;5082916;28;20103;-78
2022/03/14 09:38:47;;;;;;;4.28;2.80;;;;;;;27.58;7.88;99426.41;5082139;28;20032;-78
2022/03/14 09:41:17;;;;;;;10.90;3.80;;;;;;;25.02;8.90;99429.13;5083873;28;20035;-78
2022/03/14 09:43:46;;;;;;;5.65;3.80;;;;;;;24.10;9.62;99422.13;5081863;28;20039;-78
2022/03/14 09:46:13;;;;;;;3.65;2.47;;;;;;;26.09;9.27;99422.44;5081001;28;20505;-78
2022/03/14 09:48:48;;;;;;;4.63;2.08;;;;;;;27.87;8.04;99417.06;5085320;28;20485;-78
2022/03/14 09:51:15;;;;;;;5.45;3.40;;;;;;;25.35;9.07;99420.13;5084896;28;20056;-81
2022/03/14 09:53:42;;;;;;;6.15;3.35;;;;;;;23.51;10.15;99421.69;5083369;28;20025;-78
2022/03/14 09:56:09;;;;;;;3.78;2.55;;;;;;;24.73;9.31;99420.00;5083004;28;20111;-78
2022/03/14 09:58:36;;;;;;;7.25;3.40;;;;;;;25.22;9.74;99419.03;5088680;28;20036;-78
2022/03/14 10:01:03;;;;;;;3.80;2.10;;;;;;;26.30;8.01;99415.81;5082816;28;20430;-79
2022/03/14 10:03:29;;;;;;;4.25;2.60;;;;;;;26.74;8.92;99423.44;5087658;28;20493;-78
2022/03/14 10:05:56;;;;;;;5.68;3.60;;;;;;;27.42;9.19;99416.53;5083840;28;20036;-78
2022/03/14 10:08:22;;;;;;;4.53;2.63;;;;;;;26.40;8.47;99412.09;5085030;28;20024;-79
2022/03/14 10:10:49;;;;;;;2.85;1.88;;;;;;;27.95;7.97;99418.53;5087793;28;20063;-78
2022/03/14 10:13:16;;;;;;;3.88;1.98;;;;;;;27.34;8.00;99422.69;5084046;28;20059;-78
2022/03/14 10:15:43;;;;;;;7.22;2.03;;;;;;;28.35;7.16;99413.03;5088470;28;20031;-79
2022/03/14 10:18:15;;;;;;;4.95;2.67;;;;;;;29.19;6.97;99416.25;5083788;28;20090;-79
2022/03/14 10:21:01;;;;;;;3.58;1.60;;;;;;;28.42;7.25;99416.53;5091020;28;20031;-79
2022/03/14 10:23:38;;;;;;;3.03;1.45;;;;;;;28.49;7.65;99416.41;5085711;28;20035;-79
2022/03/14 10:26:06;;;;;;;2.97;1.70;;;;;;;29.03;7.62;99416.97;5084078;28;20115;-79
2022/03/14 10:28:35;;;;;;;2.75;2.08;;;;;;;29.45;7.09;99426.59;5085247;28;20036;-78
2022/03/14 10:31:02;;;;;;;3.97;2.17;;;;;;;28.84;7.80;99428.28;5088185;28;20038;-79
2022/03/14 10:33:30;;;;;;;2.58;1.40;;;;;;;28.49;7.46;99427.72;5088101;28;20115;-78
2022/03/14 10:35:57;;;;;;;3.72;2.15;;;;;;;28.15;7.52;99412.19;5088442;28;20056;-78
2022/03/14 10:38:25;;;;;;;4.53;2.30;;;;;;;28.58;7.70;99418.66;5082441;28;20024;-79
2022/03/14 10:40:52;;;;;;;3.25;1.95;;;;;;;28.69;7.56;99410.78;5088022;28;20135;-79
2022/03/14 10:43:28;;;;;;;2.80;1.83;;;;;;;28.98;7.45;99411.03;5088193;28;20053;-79
2022/03/14 10:45:56;;;;;;;3.25;1.70;;;;;;;29.59;7.36;99406.47;5081649;28;20394;-79
2022/03/14 10:48:43;;;;;;;2.88;2.00;;;;;;;28.65;7.15;99408.06;5086728;28;20475;-79
2022/03/14 10:51:18;;;;;;;2.58;1.50;;;;;;;29.84;7.71;99397.38;5085308;28;20058;-78
2022/03/14 10:53:46;;;;;;;3.85;1.70;;;;;;;29.64;7.58;99397.41;5089138;28;20562;-78
2022/03/14 10:56:13;;;;;;;2.25;1.42;;;;;;;30.32;7.03;99397.34;5084729;28;20409;-78
2022/03/14 10:58:40;;;;;;;2.85;1.98;;;;;;;30.89;6.43;99384.47;5089827;28;20036;-79
2022/03/14 11:01:08;;;;;;;2.50;1.55;;;;;;;28.80;7.13;99391.59;5084527;28;20028;-79
2022/03/14 11:03:58;;;;;;;3.03;1.92;;;;;;;29.84;7.62;99389.69;5071047;28;20410;-79
2022/03/14 11:06:26;;;;;;;4.85;1.38;;;;;;;29.10;7.46;99399.81;5082786;28;20028;-79
2022/03/14 11:08:53;;;;;;;2.92;1.60;;;;;;;29.77;7.59;99387.03;5089125;28;20499;-79
2022/03/14 11:11:23;;;;;;;3.60;1.48;;;;;;;29.26;7.78;99388.63;5087865;28;20115;-79
2022/03/14 11:13:51;;;;;;;2.92;1.95;;;;;;;28.27;8.12;99386.13;5081827;28;20036;-79
2022/03/14 11:16:29;;;;;;;3.78;2.50;;;;;;;28.04;7.33;99384.94;5085748;28;20064;-79
2022/03/14 11:18:56;;;;;;;3.38;1.98;;;;;;;29.00;7.78;99389.56;5068014;28;20378;-79
2022/03/14 11:21:27;;;;;;;3.25;1.83;;;;;;;29.11;7.95;99381.63;5086278;28;20032;-79
2022/03/14 11:23:55;;;;;;;2.85;1.98;;;;;;;30.26;6.98;99379.28;5091860;28;20045;-79